Bangkok Pilot, Thailand

3:27 AM ICT on September 24, 2014 (GMT +0700)
Dokmai, Pravet | Change Station
CLOSE
Current Station
Personal Weather Station
Location: Bangkok, BANGKOK
Elevation: 10 ft
Nearby Weather Stations

Elev 10 ft 13.67 °N, 100.70 °E | Updated 3 seconds ago

Overcast
Overcast
82.0 °F
Feels Like 86 °F
N
2.0
Wind Variable Wind from East
Gusts 7.0 mph

Today
High -- | Low -- °F
--% Chance of Precip.
Yesterday
High -- | Low -- °F
Precip. -- in
6:06 AM 6:12 PM
Waning Crescent, 0% visible
Pressure 29.77 in
Visibility 6.2 miles
Clouds Few 2000 ft
Scattered Clouds 3500 ft
Mostly Cloudy 12000 ft
Heat Index 86 °F
Dew Point 70 °F
Humidity 67%
Rainfall 0.02 in
Snow Depth Not available.
UV 0.0 out of 12
Pollen Not available.
Air Quality Not available.
Flu Activity Not available.
METAR VTBS 232000Z 09005KT 060V130 9999 TS FEW020CB SCT035 BKN120 27/24 Q1008 NOSIG

More Conditions Fewer Conditions

Pressure 29.77 in
Visibility 6.2 miles
Clouds Few 2000 ft
Scattered Clouds 3500 ft
Mostly Cloudy 12000 ft
Heat Index 86 °F
Dew Point 70 °F
Humidity 67%
Rainfall 0.02 in
Snow Depth Not available.
UV 0.0 out of 12
Pollen Not available.
Air Quality Not available.
Flu Activity Not available.
METAR VTBS 232000Z 09005KT 060V130 9999 TS FEW020CB SCT035 BKN120 27/24 Q1008 NOSIG

More Conditions Fewer Conditions

10-Day Weather Forecast

Almanac

Astronomy

Sep. 24, 2014 Rise Set
Actual Time 6:06 AM ICT 6:12 PM ICT
Civil Twilight 5:45 AM ICT 6:33 PM ICT
Nautical Twilight 5:20 AM ICT 6:58 PM ICT
Astronomical Twilight 4:56 AM ICT 7:23 PM ICT
Moon 5:55 AM ICT (9/24) 6:12 PM ICT (9/24)
Length of Visible Light 12h 48m
Length of Day
12h 05m
Tomorrow will be 0m 44s shorter.
Waning Crescent, 0% of the Moon is Illuminated
Sep 23
Waning Crescent
Sep 24
New
Oct 1
First Quarter
Oct 8
Full
Oct 15
Last Quarter

Yesterday's Extremes

Country Highs Country Lows

Community

WunderPhotos

Upload Photos

1,755,787 photos uploaded!

WunderBlogs® & News

By Dr. Jeff Masters
Director of Meteorology, Weather Underground
By Kari Strenfel
Meteorologist, Weather Underground
By Christopher C. Burt
Weather Historian, Weather Underground
September 23, 2014
September 23, 2014
September 23, 2014

Nearby

Snow Depth

Not available.

Earthquake Activity

City Distance Mag. Time & Date
No recent earthquake activity has been reported nearby.
Minimum magnitude displayed is 2.5.

Coastal Water Temperatures

Place Temperature
No Stations Reporting

Nearby Weather Stations